createdAt,value
2022-12-01T00:00:01.940Z,88.22
2022-12-01T00:05:03.521Z,96.32
2022-12-01T00:10:25.442Z,96.75
2022-12-01T00:15:27.379Z,100.35
2022-12-01T00:20:29.455Z,94.40
2022-12-01T00:25:32.057Z,87.13
2022-12-01T00:30:33.666Z,93.47
2022-12-01T00:35:35.241Z,98.55
2022-12-01T00:40:36.676Z,92.40
2022-12-01T00:45:38.170Z,95.55
2022-12-01T00:50:39.585Z,95.97
2022-12-01T00:55:41.597Z,107.07
2022-12-01T01:00:43.122Z,101.78
2022-12-01T01:05:44.611Z,100.60
2022-12-01T01:10:47.025Z,93.93
2022-12-01T01:15:57.640Z,94.75
2022-12-01T01:20:59.882Z,96.45
2022-12-01T01:26:03.317Z,96.55
2022-12-01T01:31:06.481Z,100.10
2022-12-01T01:36:07.967Z,91.32
2022-12-01T01:41:09.452Z,97.93
2022-12-01T01:46:12.615Z,87.05
2022-12-01T01:51:15.693Z,95.28
2022-12-01T01:56:17.258Z,84.93
2022-12-01T02:01:18.718Z,90.20
2022-12-01T02:06:20.789Z,88.63
2022-12-01T02:11:54.762Z,93.85
2022-12-01T02:17:11.164Z,86.40
2022-12-01T02:22:21.230Z,96.88
2022-12-01T02:27:32.380Z,102.85
2022-12-01T02:32:45.718Z,87.78
2022-12-01T02:37:59.728Z,90.68
2022-12-01T02:43:04.429Z,83.65
2022-12-01T02:48:11.412Z,95.03
2022-12-01T02:53:15.188Z,89.25
2022-12-01T02:58:16.737Z,92.20
2022-12-01T03:03:18.173Z,96.82
2022-12-01T03:08:32.689Z,90.35
2022-12-01T03:14:09.609Z,83.03
2022-12-01T03:19:24.948Z,82.10
2022-12-01T03:24:27.766Z,89.95
2022-12-01T03:29:34.671Z,105.53
2022-12-01T03:34:49.664Z,85.90
2022-12-01T03:39:55.925Z,93.88
2022-12-01T03:45:03.677Z,94.10
2022-12-01T03:50:06.336Z,90.20
2022-12-01T03:55:22.548Z,91.38
2022-12-01T04:00:24.469Z,96.10
2022-12-01T04:05:26.419Z,85.88
2022-12-01T04:10:27.842Z,105.18
2022-12-01T04:15:29.258Z,92.50
2022-12-01T04:20:30.664Z,95.53
2022-12-01T04:25:32.089Z,88.10
2022-12-01T04:30:33.452Z,93.03
2022-12-01T04:35:34.831Z,92.10
2022-12-01T04:40:38.114Z,84.75
2022-12-01T04:45:39.542Z,97.07
2022-12-01T04:50:41.636Z,88.68
2022-12-01T04:55:42.995Z,103.40
2022-12-01T05:00:44.901Z,95.25
2022-12-01T05:05:46.340Z,94.65
2022-12-01T05:10:47.762Z,93.20
2022-12-01T05:15:49.303Z,99.10
2022-12-01T05:20:59.630Z,98.50
2022-12-01T05:26:01.271Z,105.03
2022-12-01T05:31:03.412Z,98.93
2022-12-01T05:36:05.077Z,100.18
2022-12-01T05:41:06.435Z,101.10
2022-12-01T05:46:07.921Z,111.25
2022-12-01T05:51:10.266Z,102.78
2022-12-01T05:56:12.385Z,98.90
2022-12-01T06:01:13.866Z,96.20
2022-12-01T06:06:15.327Z,109.93
2022-12-01T06:11:16.713Z,107.55
2022-12-01T06:16:18.144Z,109.20
2022-12-01T06:21:19.749Z,97.22
2022-12-01T06:26:21.195Z,103.32
2022-12-01T06:31:22.677Z,101.45
2022-12-01T06:36:24.144Z,115.03
2022-12-01T06:41:53.600Z,109.00
2022-12-01T06:46:55.014Z,118.53
2022-12-01T06:51:56.453Z,112.03
2022-12-01T06:56:58.646Z,112.97
2022-12-01T07:02:00.628Z,116.80
2022-12-01T07:07:02.066Z,110.15
2022-12-01T07:12:03.546Z,108.72
2022-12-01T07:17:05.018Z,114.20
2022-12-01T07:22:06.496Z,112.93
2022-12-01T07:27:07.951Z,114.20
2022-12-01T07:32:09.415Z,110.38
2022-12-01T07:37:10.862Z,116.60
2022-12-01T07:42:12.285Z,111.78
2022-12-01T07:47:14.267Z,121.47
2022-12-01T07:52:15.675Z,118.00
2022-12-01T07:57:18.233Z,120.03
2022-12-01T08:02:19.715Z,110.90
2022-12-01T08:07:21.290Z,107.50
2022-12-01T08:12:23.040Z,96.78
2022-12-01T08:17:24.528Z,99.93
2022-12-01T08:22:25.965Z,107.03
2022-12-01T08:27:27.458Z,100.63
2022-12-01T08:32:29.766Z,100.70
2022-12-01T08:37:31.169Z,101.47
2022-12-01T08:42:33.202Z,110.53
2022-12-01T08:47:34.740Z,91.03
2022-12-01T08:52:36.196Z,104.38
2022-12-01T08:57:37.601Z,101.47
2022-12-01T09:02:39.218Z,92.10
2022-12-01T09:07:42.774Z,99.30
2022-12-01T09:12:44.228Z,93.93
2022-12-01T09:17:45.625Z,92.38
2022-12-01T09:23:15.294Z,99.32
2022-12-01T09:28:18.074Z,95.17
2022-12-01T09:33:19.468Z,96.43
2022-12-01T09:38:20.985Z,104.57
2022-12-01T09:43:24.035Z,102.25
2022-12-01T09:48:31.433Z,96.10
2022-12-01T09:53:32.881Z,90.25
2022-12-01T09:58:52.810Z,97.25
2022-12-01T10:03:56.885Z,94.15
2022-12-01T10:09:14.634Z,86.70
2022-12-01T10:14:19.990Z,79.90
2022-12-01T10:19:26.795Z,76.75
2022-12-01T10:24:34.205Z,66.10
2022-12-01T10:29:35.624Z,73.65
2022-12-01T10:34:38.832Z,67.80
2022-12-01T10:39:43.624Z,73.90
2022-12-01T10:44:45.397Z,66.60
2022-12-01T10:49:47.502Z,53.92
2022-12-01T10:54:49.285Z,56.75
2022-12-01T10:59:53.098Z,62.75
2022-12-01T11:04:55.668Z,53.03
2022-12-01T11:10:06.396Z,49.78
2022-12-01T11:15:08.381Z,49.22
2022-12-01T11:20:25.692Z,51.63
2022-12-01T11:25:27.258Z,54.72
2022-12-01T11:30:29.819Z,54.22
2022-12-01T11:35:36.234Z,55.63
2022-12-01T11:40:48.055Z,49.63
2022-12-01T11:45:49.787Z,57.33
2022-12-01T11:51:10.198Z,45.67
2022-12-01T11:56:23.804Z,43.05
2022-12-01T12:01:32.878Z,41.30
2022-12-01T12:06:46.335Z,55.20
2022-12-01T12:11:50.554Z,61.63
2022-12-01T12:17:18.333Z,50.60
2022-12-01T12:22:26.376Z,54.90
2022-12-01T12:27:43.458Z,52.85
2022-12-01T12:32:50.885Z,52.08
2022-12-01T12:37:55.122Z,52.20
2022-12-01T12:43:18.701Z,47.13
2022-12-01T12:48:23.049Z,49.95
2022-12-01T12:53:27.695Z,48.95
2022-12-01T12:58:41.760Z,54.28
2022-12-01T13:03:58.076Z,54.28
2022-12-01T13:09:02.809Z,55.38
2022-12-01T13:14:07.312Z,59.47
2022-12-01T13:19:27.328Z,55.13
2022-12-01T13:24:29.658Z,61.25
2022-12-01T13:29:34.444Z,50.17
2022-12-01T13:34:42.718Z,51.17
2022-12-01T13:39:44.652Z,48.75
2022-12-01T13:44:51.403Z,52.60
2022-12-01T13:49:53.374Z,49.95
2022-12-01T13:55:03.838Z,48.45
2022-12-01T14:00:17.254Z,50.30
2022-12-01T14:05:24.589Z,49.67
2022-12-01T14:10:27.908Z,45.08
2022-12-01T14:15:29.537Z,40.33
2022-12-01T14:20:32.685Z,40.95
2022-12-01T14:25:34.278Z,41.95
2022-12-01T14:30:41.654Z,38.90
2022-12-01T14:35:43.208Z,40.03
2022-12-01T14:40:44.730Z,39.65
2022-12-01T14:46:07.499Z,38.67
2022-12-01T14:51:21.312Z,36.60
2022-12-01T14:56:24.173Z,37.13
2022-12-01T15:01:30.395Z,38.45
2022-12-01T15:06:32.533Z,34.28
2022-12-01T15:11:35.978Z,31.70
2022-12-01T15:16:40.762Z,34.40
2022-12-01T15:21:42.214Z,32.95
2022-12-01T15:26:47.974Z,36.30
2022-12-01T15:31:50.935Z,32.50
2022-12-01T15:36:53.501Z,35.42
2022-12-01T15:41:55.760Z,35.58
2022-12-01T15:46:57.897Z,35.17
2022-12-01T15:52:07.130Z,34.53
2022-12-01T15:57:09.112Z,28.30
2022-12-01T16:02:22.675Z,29.70
2022-12-01T16:13:23.209Z,33.27
2022-12-01T16:18:28.479Z,36.33
2022-12-01T16:23:30.199Z,29.60
2022-12-01T16:28:34.530Z,30.77
2022-12-01T16:33:37.573Z,33.63
2022-12-01T16:38:39.103Z,34.53
2022-12-01T16:43:50.214Z,29.58
2022-12-01T16:54:02.879Z,30.83
2022-12-01T16:59:05.011Z,31.55
2022-12-01T17:04:07.903Z,27.83
2022-12-01T17:09:09.408Z,29.02
2022-12-01T17:14:10.922Z,33.45
2022-12-01T17:19:12.628Z,29.83
2022-12-01T17:24:18.831Z,27.73
2022-12-01T17:29:20.697Z,32.47
2022-12-01T17:34:22.101Z,33.42
2022-12-01T17:39:23.621Z,34.33
2022-12-01T17:44:25.135Z,36.88
2022-12-01T17:49:26.573Z,33.90
2022-12-01T17:54:28.041Z,34.90
2022-12-01T17:59:29.467Z,35.88
2022-12-01T18:04:31.643Z,36.03
2022-12-01T18:09:33.435Z,36.75
2022-12-01T18:14:34.969Z,37.13
2022-12-01T18:19:36.424Z,34.88
2022-12-01T18:24:37.898Z,37.13
2022-12-01T18:29:39.376Z,39.15
2022-12-01T18:34:40.768Z,39.83
2022-12-01T18:39:42.221Z,38.53
2022-12-01T18:44:43.733Z,45.65
2022-12-01T18:49:45.190Z,54.15
2022-12-01T18:54:46.656Z,55.78
2022-12-01T18:59:48.252Z,58.70
2022-12-01T19:05:08.211Z,57.47
2022-12-01T19:10:09.703Z,61.83
2022-12-01T19:15:11.423Z,69.15
2022-12-01T19:20:12.860Z,61.50
2022-12-01T19:25:14.419Z,73.72
2022-12-01T19:30:15.996Z,75.85
2022-12-01T19:35:17.785Z,68.70
2022-12-01T19:40:19.325Z,77.95
2022-12-01T19:45:20.932Z,75.20
2022-12-01T19:50:22.634Z,83.50
2022-12-01T20:00:39.431Z,74.47
2022-12-01T20:05:40.859Z,77.00
2022-12-01T20:10:48.772Z,79.57
2022-12-01T20:15:50.185Z,81.50
2022-12-01T20:21:01.563Z,81.07
2022-12-01T20:26:04.277Z,83.60
2022-12-01T20:31:16.340Z,84.70
2022-12-01T20:36:17.867Z,90.18
2022-12-01T20:41:19.245Z,95.32
2022-12-01T20:46:20.823Z,100.03
2022-12-01T20:51:22.369Z,103.30
2022-12-01T20:56:23.804Z,94.97
2022-12-01T21:01:25.466Z,100.15
2022-12-01T21:06:28.756Z,98.22
2022-12-01T21:11:51.931Z,90.72
2022-12-01T21:16:55.171Z,103.10
2022-12-01T21:21:57.139Z,96.47
2022-12-01T21:26:59.658Z,103.18
2022-12-01T21:32:05.253Z,97.75
2022-12-01T21:37:10.690Z,103.80
2022-12-01T21:42:18.199Z,104.38
2022-12-01T21:47:24.008Z,101.93
2022-12-01T21:52:33.214Z,95.93
2022-12-01T21:57:43.486Z,100.85
2022-12-01T22:02:52.232Z,99.50
2022-12-01T22:07:59.480Z,104.18
2022-12-01T22:13:00.892Z,89.20
2022-12-01T22:18:03.617Z,93.35
2022-12-01T22:23:10.142Z,102.00
2022-12-01T22:28:15.860Z,90.80
2022-12-01T22:33:21.224Z,99.28
2022-12-01T22:38:30.550Z,105.28
2022-12-01T22:43:41.011Z,94.85
2022-12-01T22:48:44.276Z,96.40
2022-12-01T22:53:46.193Z,104.63
2022-12-01T22:58:48.019Z,101.13
2022-12-01T23:03:49.423Z,105.85
2022-12-01T23:08:50.850Z,105.50
2022-12-01T23:13:52.262Z,111.43
2022-12-01T23:18:54.210Z,109.82
2022-12-01T23:23:55.605Z,102.93
2022-12-01T23:28:57.591Z,106.40
2022-12-01T23:33:58.946Z,99.43
2022-12-01T23:39:02.374Z,106.40
2022-12-01T23:44:09.150Z,106.50
2022-12-01T23:49:12.980Z,105.07
2022-12-01T23:54:18.382Z,104.20
2022-12-01T23:59:20.069Z,104.43
